sensor_id;sensor_type;location;lat;lon;timestamp;pressure;altitude;pressure_sealevel;temperature;humidity
66703;BME280;60933;46.398;-63.798;2023-03-18T05:37:12;100534.81;;;-0.77;88.43
66703;BME280;60933;46.398;-63.798;2023-03-18T05:39:48;100531.38;;;-0.80;88.17
66703;BME280;60933;46.398;-63.798;2023-03-18T05:42:15;100517.88;;;-0.78;88.30
66703;BME280;60933;46.398;-63.798;2023-03-18T05:44:44;100510.28;;;-0.78;88.31
66703;BME280;60933;46.398;-63.798;2023-03-18T05:47:11;100504.38;;;-0.77;88.37
66703;BME280;60933;46.398;-63.798;2023-03-18T05:49:37;100483.25;;;-0.76;88.58
66703;BME280;60933;46.398;-63.798;2023-03-18T05:52:03;100447.78;;;-0.76;88.66
66703;BME280;60933;46.398;-63.798;2023-03-18T05:54:32;100423.28;;;-0.76;88.56
66703;BME280;60933;46.398;-63.798;2023-03-18T05:56:58;100403.84;;;-0.75;87.87
66703;BME280;60933;46.398;-63.798;2023-03-18T05:59:24;100401.38;;;-0.74;88.45
66703;BME280;60933;46.398;-63.798;2023-03-18T06:01:51;100391.22;;;-0.74;87.83
66703;BME280;60933;46.398;-63.798;2023-03-18T06:04:18;100400.50;;;-0.74;88.21
66703;BME280;60933;46.398;-63.798;2023-03-18T06:06:45;100369.25;;;-0.75;88.54
66703;BME280;60933;46.398;-63.798;2023-03-18T06:09:12;100382.00;;;-0.70;87.99
66703;BME280;60933;46.398;-63.798;2023-03-18T06:11:38;100365.06;;;-0.71;88.16
66703;BME280;60933;46.398;-63.798;2023-03-18T06:14:06;100368.50;;;-0.69;88.18
66703;BME280;60933;46.398;-63.798;2023-03-18T06:16:32;100349.06;;;-0.67;88.06
66703;BME280;60933;46.398;-63.798;2023-03-18T06:19:00;100355.00;;;-0.65;87.91
66703;BME280;60933;46.398;-63.798;2023-03-18T06:21:27;100344.88;;;-0.65;88.42
66703;BME280;60933;46.398;-63.798;2023-03-18T06:23:54;100351.66;;;-0.64;87.54
66703;BME280;60933;46.398;-63.798;2023-03-18T06:26:20;100350.00;;;-0.62;87.96
66703;BME280;60933;46.398;-63.798;2023-03-18T06:28:46;100345.78;;;-0.61;87.80
66703;BME280;60933;46.398;-63.798;2023-03-18T06:31:12;100344.94;;;-0.60;87.76
66703;BME280;60933;46.398;-63.798;2023-03-18T06:33:38;100343.25;;;-0.60;87.35
66703;BME280;60933;46.398;-63.798;2023-03-18T06:36:05;100330.56;;;-0.60;88.07
66703;BME280;60933;46.398;-63.798;2023-03-18T06:38:31;100346.66;;;-0.59;87.21
66703;BME280;60933;46.398;-63.798;2023-03-18T06:40:58;100351.75;;;-0.58;87.48
66703;BME280;60933;46.398;-63.798;2023-03-18T06:43:24;100355.09;;;-0.59;87.72
66703;BME280;60933;46.398;-63.798;2023-03-18T06:45:51;100359.34;;;-0.58;87.22
66703;BME280;60933;46.398;-63.798;2023-03-18T06:48:18;100359.34;;;-0.58;87.42
66703;BME280;60933;46.398;-63.798;2023-03-18T06:50:44;100368.72;;;-0.54;87.19
66703;BME280;60933;46.398;-63.798;2023-03-18T06:53:11;100356.00;;;-0.55;87.40
66703;BME280;60933;46.398;-63.798;2023-03-18T06:55:37;100356.88;;;-0.55;87.09
66703;BME280;60933;46.398;-63.798;2023-03-18T06:58:04;100354.34;;;-0.53;87.21
66703;BME280;60933;46.398;-63.798;2023-03-18T07:00:31;100352.63;;;-0.56;87.45
66703;BME280;60933;46.398;-63.798;2023-03-18T07:02:59;100356.91;;;-0.52;87.58
66703;BME280;60933;46.398;-63.798;2023-03-18T07:05:26;100346.75;;;-0.53;87.67
66703;BME280;60933;46.398;-63.798;2023-03-18T07:07:52;100350.13;;;-0.53;87.43
66703;BME280;60933;46.398;-63.798;2023-03-18T07:10:27;100347.56;;;-0.54;87.21
66703;BME280;60933;46.398;-63.798;2023-03-18T07:12:55;100354.34;;;-0.52;87.48
66703;BME280;60933;46.398;-63.798;2023-03-18T07:15:22;100363.69;;;-0.51;87.44
66703;BME280;60933;46.398;-63.798;2023-03-18T07:17:49;100362.84;;;-0.50;87.34
66703;BME280;60933;46.398;-63.798;2023-03-18T07:20:17;100361.13;;;-0.51;88.14
66703;BME280;60933;46.398;-63.798;2023-03-18T07:22:44;100362.84;;;-0.50;87.77
66703;BME280;60933;46.398;-63.798;2023-03-18T07:25:11;100359.47;;;-0.50;87.50
66703;BME280;60933;46.398;-63.798;2023-03-18T07:27:38;100351.88;;;-0.49;87.92
66703;BME280;60933;46.398;-63.798;2023-03-18T07:30:05;100344.28;;;-0.49;88.17
66703;BME280;60933;46.398;-63.798;2023-03-18T07:32:35;100336.66;;;-0.50;88.21
66703;BME280;60933;46.398;-63.798;2023-03-18T07:35:03;100348.53;;;-0.47;87.79
66703;BME280;60933;46.398;-63.798;2023-03-18T07:37:31;100338.34;;;-0.49;87.62
66703;BME280;60933;46.398;-63.798;2023-03-18T07:39:58;100333.31;;;-0.47;88.21
66703;BME280;60933;46.398;-63.798;2023-03-18T07:42:24;100331.59;;;-0.47;87.83
66703;BME280;60933;46.398;-63.798;2023-03-18T07:44:49;100340.09;;;-0.46;88.09
66703;BME280;60933;46.398;-63.798;2023-03-18T07:47:15;100342.63;;;-0.46;87.76
66703;BME280;60933;46.398;-63.798;2023-03-18T07:49:42;100346.84;;;-0.45;87.54
66703;BME280;60933;46.398;-63.798;2023-03-18T07:52:08;100347.69;;;-0.46;87.83
66703;BME280;60933;46.398;-63.798;2023-03-18T07:54:35;100340.09;;;-0.46;88.49
66703;BME280;60933;46.398;-63.798;2023-03-18T07:57:00;100351.06;;;-0.46;88.40
66703;BME280;60933;46.398;-63.798;2023-03-18T07:59:28;100349.34;;;-0.47;88.27
66703;BME280;60933;46.398;-63.798;2023-03-18T08:01:53;100345.97;;;-0.47;88.49
66703;BME280;60933;46.398;-63.798;2023-03-18T08:04:19;100345.16;;;-0.46;88.20
66703;BME280;60933;46.398;-63.798;2023-03-18T08:06:45;100351.88;;;-0.49;88.12
66703;BME280;60933;46.398;-63.798;2023-03-18T08:09:12;100346.81;;;-0.49;88.31
66703;BME280;60933;46.398;-63.798;2023-03-18T08:11:37;100344.28;;;-0.49;88.88
66703;BME280;60933;46.398;-63.798;2023-03-18T08:14:03;100344.28;;;-0.49;88.37
66703;BME280;60933;46.398;-63.798;2023-03-18T08:16:29;100340.88;;;-0.49;88.57
66703;BME280;60933;46.398;-63.798;2023-03-18T08:18:55;100334.06;;;-0.52;88.67
66703;BME280;60933;46.398;-63.798;2023-03-18T08:21:21;100327.34;;;-0.50;88.60
66703;BME280;60933;46.398;-63.798;2023-03-18T08:23:47;100327.34;;;-0.50;89.10
66703;BME280;60933;46.398;-63.798;2023-03-18T08:26:13;100318.91;;;-0.50;88.94
66703;BME280;60933;46.398;-63.798;2023-03-18T08:28:38;100309.59;;;-0.50;88.81
66703;BME280;60933;46.398;-63.798;2023-03-18T08:31:04;100309.59;;;-0.50;88.78
66703;BME280;60933;46.398;-63.798;2023-03-18T08:33:30;100299.44;;;-0.50;88.85
66703;BME280;60933;46.398;-63.798;2023-03-18T08:35:57;100307.06;;;-0.51;88.69
66703;BME280;60933;46.398;-63.798;2023-03-18T08:38:24;100301.09;;;-0.55;89.44
66703;BME280;60933;46.398;-63.798;2023-03-18T08:40:50;100310.44;;;-0.51;88.98
66703;BME280;60933;46.398;-63.798;2023-03-18T08:43:16;100313.84;;;-0.50;88.71
66703;BME280;60933;46.398;-63.798;2023-03-18T08:45:43;100310.47;;;-0.47;89.14
66703;BME280;60933;46.398;-63.798;2023-03-18T08:48:09;100312.13;;;-0.51;88.61
66703;BME280;60933;46.398;-63.798;2023-03-18T08:50:35;100319.75;;;-0.50;88.54
66703;BME280;60933;46.398;-63.798;2023-03-18T08:53:02;100315.50;;;-0.51;88.77
66703;BME280;60933;46.398;-63.798;2023-03-18T08:55:34;100324.88;;;-0.45;88.60
66703;BME280;60933;46.398;-63.798;2023-03-18T08:58:02;100320.66;;;-0.44;89.20
66703;BME280;60933;46.398;-63.798;2023-03-18T09:00:28;100310.47;;;-0.47;88.76
66703;BME280;60933;46.398;-63.798;2023-03-18T09:02:55;100324.06;;;-0.42;88.79
66703;BME280;60933;46.398;-63.798;2023-03-18T09:05:21;100317.28;;;-0.42;88.80
66703;BME280;60933;46.398;-63.798;2023-03-18T09:07:46;100314.81;;;-0.40;88.66
66703;BME280;60933;46.398;-63.798;2023-03-18T09:10:13;100313.88;;;-0.45;88.70
66703;BME280;60933;46.398;-63.798;2023-03-18T09:12:42;100325.78;;;-0.40;88.65
66703;BME280;60933;46.398;-63.798;2023-03-18T09:15:10;100329.19;;;-0.39;88.59
66703;BME280;60933;46.398;-63.798;2023-03-18T09:17:37;100334.25;;;-0.39;89.11
66703;BME280;60933;46.398;-63.798;2023-03-18T09:20:06;100334.25;;;-0.39;88.64
66703;BME280;60933;46.398;-63.798;2023-03-18T09:22:34;100324.94;;;-0.40;89.12
66703;BME280;60933;46.398;-63.798;2023-03-18T09:25:00;100324.13;;;-0.38;88.79
66703;BME280;60933;46.398;-63.798;2023-03-18T09:27:26;100327.50;;;-0.37;88.74
66703;BME280;60933;46.398;-63.798;2023-03-18T09:29:52;100320.72;;;-0.38;88.59
66703;BME280;60933;46.398;-63.798;2023-03-18T09:32:17;100330.03;;;-0.37;88.98
66703;BME280;60933;46.398;-63.798;2023-03-18T09:34:43;100328.31;;;-0.41;89.15
66703;BME280;60933;46.398;-63.798;2023-03-18T09:37:10;100340.16;;;-0.39;88.85
66703;BME280;60933;46.398;-63.798;2023-03-18T09:39:38;100327.44;;;-0.43;89.32
66703;BME280;60933;46.398;-63.798;2023-03-18T09:45:30;100315.63;;;-0.43;88.89
66703;BME280;60933;46.398;-63.798;2023-03-18T09:51:04;100321.53;;;-0.41;88.99
66703;BME280;60933;46.398;-63.798;2023-03-18T09:56:46;100314.75;;;-0.43;89.68
66703;BME280;60933;46.398;-63.798;2023-03-18T09:59:24;100313.91;;;-0.44;89.63
66703;BME280;60933;46.398;-63.798;2023-03-18T10:01:54;100310.56;;;-0.41;89.65
66703;BME280;60933;46.398;-63.798;2023-03-18T10:04:35;100308.03;;;-0.41;89.64
66703;BME280;60933;46.398;-63.798;2023-03-18T10:07:12;100296.19;;;-0.41;89.73
66703;BME280;60933;46.398;-63.798;2023-03-18T10:09:51;100296.16;;;-0.42;89.67
66703;BME280;60933;46.398;-63.798;2023-03-18T10:15:17;100304.59;;;-0.43;89.72
66703;BME280;60933;46.398;-63.798;2023-03-18T10:18:16;100277.47;;;-0.51;89.76
66703;BME280;60933;46.398;-63.798;2023-03-18T10:34:32;100280.88;;;-0.49;89.90
66703;BME280;60933;46.398;-63.798;2023-03-18T10:37:18;100288.56;;;-0.44;90.08
66703;BME280;60933;46.398;-63.798;2023-03-18T10:39:55;100279.22;;;-0.46;90.08
66703;BME280;60933;46.398;-63.798;2023-03-18T10:42:29;100293.63;;;-0.41;90.13
66703;BME280;60933;46.398;-63.798;2023-03-18T10:45:29;100309.75;;;-0.37;90.08
66703;BME280;60933;46.398;-63.798;2023-03-18T10:48:06;100298.75;;;-0.38;90.13
66703;BME280;60933;46.398;-63.798;2023-03-18T10:58:17;100300.50;;;-0.34;90.35
66703;BME280;60933;46.398;-63.798;2023-03-18T11:00:44;100303.97;;;-0.27;90.19
66703;BME280;60933;46.398;-63.798;2023-03-18T11:03:24;100315.81;;;-0.26;90.06
66703;BME280;60933;46.398;-63.798;2023-03-18T11:05:53;100312.47;;;-0.25;89.84
66703;BME280;60933;46.398;-63.798;2023-03-18T11:08:39;100309.09;;;-0.24;90.01
66703;BME280;60933;46.398;-63.798;2023-03-18T11:13:57;100315.00;;;-0.22;90.09
66703;BME280;60933;46.398;-63.798;2023-03-18T11:16:39;100310.00;;;-0.19;90.02
66703;BME280;60933;46.398;-63.798;2023-03-18T11:19:31;100309.19;;;-0.16;89.74
66703;BME280;60933;46.398;-63.798;2023-03-18T11:22:15;100312.53;;;-0.17;90.33
66703;BME280;60933;46.398;-63.798;2023-03-18T11:24:43;100309.16;;;-0.18;90.07
66703;BME280;60933;46.398;-63.798;2023-03-18T11:29:43;100314.31;;;-0.11;89.96
66703;BME280;60933;46.398;-63.798;2023-03-18T11:32:32;100290.53;;;-0.18;89.97
66703;BME280;60933;46.398;-63.798;2023-03-18T11:35:00;100299.97;;;-0.06;89.84
66703;BME280;60933;46.398;-63.798;2023-03-18T11:37:38;100300.88;;;-0.03;89.93
66703;BME280;60933;46.398;-63.798;2023-03-18T11:40:25;100296.69;;;0.01;89.78
66703;BME280;60933;46.398;-63.798;2023-03-18T11:42:55;100294.13;;;0.01;89.37
66703;BME280;60933;46.398;-63.798;2023-03-18T11:45:41;100292.47;;;0.05;89.23
66703;BME280;60933;46.398;-63.798;2023-03-18T11:48:33;100290.03;;;0.12;89.52
66703;BME280;60933;46.398;-63.798;2023-03-18T11:54:29;100281.72;;;0.26;89.30
66703;BME280;60933;46.398;-63.798;2023-03-18T12:02:30;100276.00;;;0.47;88.58
66703;BME280;60933;46.398;-63.798;2023-03-18T12:08:25;100266.75;;;0.57;87.61
66703;BME280;60933;46.398;-63.798;2023-03-18T12:11:06;100259.19;;;0.61;87.62
66703;BME280;60933;46.398;-63.798;2023-03-18T12:19:26;100240.72;;;0.84;87.08
66703;BME280;60933;46.398;-63.798;2023-03-18T12:22:31;100245.84;;;0.90;86.99
66703;BME280;60933;46.398;-63.798;2023-03-18T12:25:17;100255.16;;;0.90;86.38
66703;BME280;60933;46.398;-63.798;2023-03-18T12:38:44;100233.16;;;0.95;85.79
66703;BME280;60933;46.398;-63.798;2023-03-18T12:41:31;100235.75;;;1.00;85.44
66703;BME280;60933;46.398;-63.798;2023-03-18T12:47:15;100239.22;;;1.11;85.47
66703;BME280;60933;46.398;-63.798;2023-03-18T12:52:24;100235.00;;;1.18;85.17
66703;BME280;60933;46.398;-63.798;2023-03-18T12:55:25;100238.41;;;1.23;84.88
66703;BME280;60933;46.398;-63.798;2023-03-18T12:58:00;100251.19;;;1.29;84.90
66703;BME280;60933;46.398;-63.798;2023-03-18T13:03:20;100235.09;;;1.39;84.09
66703;BME280;60933;46.398;-63.798;2023-03-18T13:05:48;100232.59;;;1.50;83.93
66703;BME280;60933;46.398;-63.798;2023-03-18T13:11:45;100232.66;;;1.63;83.19
66703;BME280;60933;46.398;-63.798;2023-03-18T13:17:12;100233.53;;;1.69;82.68
66703;BME280;60933;46.398;-63.798;2023-03-18T13:19:40;100236.94;;;1.71;82.46
66703;BME280;60933;46.398;-63.798;2023-03-18T13:44:19;100262.44;;;1.93;81.35
66703;BME280;60933;46.398;-63.798;2023-03-18T13:47:01;100259.06;;;1.94;81.30
66703;BME280;60933;46.398;-63.798;2023-03-18T13:49:30;100268.41;;;2.00;80.81
66703;BME280;60933;46.398;-63.798;2023-03-18T13:51:59;100266.72;;;2.02;80.38
66703;BME280;60933;46.398;-63.798;2023-03-18T13:54:45;100264.19;;;2.05;80.53
66703;BME280;60933;46.398;-63.798;2023-03-18T13:59:49;100265.91;;;2.14;80.37
66703;BME280;60933;46.398;-63.798;2023-03-18T14:07:56;100256.59;;;2.28;79.88
66703;BME280;60933;46.398;-63.798;2023-03-18T14:10:23;100266.81;;;2.37;79.81
66703;BME280;60933;46.398;-63.798;2023-03-18T14:12:49;100271.03;;;2.42;79.23
66703;BME280;60933;46.398;-63.798;2023-03-18T14:15:43;100266.81;;;2.45;79.32
66703;BME280;60933;46.398;-63.798;2023-03-18T14:18:22;100265.94;;;2.54;79.05
66703;BME280;60933;46.398;-63.798;2023-03-18T14:20:55;100266.81;;;2.67;78.98
66703;BME280;60933;46.398;-63.798;2023-03-18T14:26:02;100244.72;;;2.84;78.62
66703;BME280;60933;46.398;-63.798;2023-03-18T14:28:44;100259.97;;;3.03;78.43
66703;BME280;60933;46.398;-63.798;2023-03-18T14:31:32;100254.88;;;3.14;78.02
66703;BME280;60933;46.398;-63.798;2023-03-18T14:34:21;100242.94;;;3.25;77.64
66703;BME280;60933;46.398;-63.798;2023-03-18T14:39:53;100249.69;;;3.46;76.83
66703;BME280;60933;46.398;-63.798;2023-03-18T14:42:39;100241.13;;;3.55;76.28
66703;BME280;60933;46.398;-63.798;2023-03-18T14:45:40;100233.47;;;3.63;75.41
66703;BME280;60933;46.398;-63.798;2023-03-18T14:48:29;100213.88;;;3.63;74.94
66703;BME280;60933;46.398;-63.798;2023-03-18T14:50:57;100212.94;;;3.80;75.41
66703;BME280;60933;46.398;-63.798;2023-03-18T14:56:03;100207.59;;;4.20;74.16
66703;BME280;60933;46.398;-63.798;2023-03-18T14:58:29;100200.50;;;4.53;73.42
66703;BME280;60933;46.398;-63.798;2023-03-18T15:01:07;100189.91;;;4.92;72.56
66703;BME280;60933;46.398;-63.798;2023-03-18T15:03:37;100186.03;;;5.33;72.30
66703;BME280;60933;46.398;-63.798;2023-03-18T15:06:04;100183.03;;;5.69;70.99
66703;BME280;60933;46.398;-63.798;2023-03-18T15:08:34;100182.09;;;5.75;70.82
66703;BME280;60933;46.398;-63.798;2023-03-18T15:11:04;100176.00;;;5.83;69.46
66703;BME280;60933;46.398;-63.798;2023-03-18T15:13:31;100177.75;;;5.81;68.77
66703;BME280;60933;46.398;-63.798;2023-03-18T15:16:03;100165.75;;;5.85;68.17
66703;BME280;60933;46.398;-63.798;2023-03-18T15:18:37;100161.44;;;5.85;68.24
66703;BME280;60933;46.398;-63.798;2023-03-18T15:23:51;100150.44;;;6.37;68.12
66703;BME280;60933;46.398;-63.798;2023-03-18T15:28:52;100132.06;;;6.61;66.07
66703;BME280;60933;46.398;-63.798;2023-03-18T15:31:27;100133.72;;;6.64;66.41
66703;BME280;60933;46.398;-63.798;2023-03-18T15:34:03;100130.75;;;6.86;66.40
66703;BME280;60933;46.398;-63.798;2023-03-18T15:36:29;100133.97;;;6.97;65.05
66703;BME280;60933;46.398;-63.798;2023-03-18T15:38:55;100144.50;;;7.27;65.49
66703;BME280;60933;46.398;-63.798;2023-03-18T15:41:21;100134.78;;;7.79;64.14
66703;BME280;60933;46.398;-63.798;2023-03-18T15:43:50;100138.66;;;8.32;63.29
66703;BME280;60933;46.398;-63.798;2023-03-18T15:46:29;100151.53;;;8.32;61.57
66703;BME280;60933;46.398;-63.798;2023-03-18T15:49:00;100165.75;;;8.11;61.22
66703;BME280;60933;46.398;-63.798;2023-03-18T15:51:40;100154.94;;;7.98;61.51
66703;BME280;60933;46.398;-63.798;2023-03-18T15:54:27;100143.41;;;8.13;61.10
66703;BME280;60933;46.398;-63.798;2023-03-18T15:56:58;100141.28;;;8.30;62.01
66703;BME280;60933;46.398;-63.798;2023-03-18T15:59:27;100133.03;;;8.52;61.17
66703;BME280;60933;46.398;-63.798;2023-03-18T16:01:59;100137.59;;;8.75;61.23
66703;BME280;60933;46.398;-63.798;2023-03-18T16:04:29;100149.03;;;8.96;59.62
66703;BME280;60933;46.398;-63.798;2023-03-18T16:06:57;100176.75;;;9.18;58.79
66703;BME280;60933;46.398;-63.798;2023-03-18T16:09:25;100191.59;;;9.08;58.68
66703;BME280;60933;46.398;-63.798;2023-03-18T16:11:52;100214.63;;;8.81;58.57
66703;BME280;60933;46.398;-63.798;2023-03-18T16:14:22;100220.59;;;8.49;58.60
66703;BME280;60933;46.398;-63.798;2023-03-18T16:16:50;100197.69;;;8.36;59.33
66703;BME280;60933;46.398;-63.798;2023-03-18T16:19:25;100174.53;;;8.38;59.01
66703;BME280;60933;46.398;-63.798;2023-03-18T16:21:54;100188.94;;;8.45;59.31
66703;BME280;60933;46.398;-63.798;2023-03-18T16:24:21;100153.66;;;8.50;58.84
66703;BME280;60933;46.398;-63.798;2023-03-18T16:26:49;100129.91;;;8.74;59.09
66703;BME280;60933;46.398;-63.798;2023-03-18T16:29:23;100124.81;;;9.03;59.39
66703;BME280;60933;46.398;-63.798;2023-03-18T16:31:52;100117.97;;;9.32;57.67
66703;BME280;60933;46.398;-63.798;2023-03-18T16:34:18;100108.22;;;9.71;56.97
66703;BME280;60933;46.398;-63.798;2023-03-18T16:36:45;100131.75;;;9.88;57.52
66703;BME280;60933;46.398;-63.798;2023-03-18T16:39:25;100183.47;;;9.54;59.14
66703;BME280;60933;46.398;-63.798;2023-03-18T16:42:03;100182.63;;;8.92;58.10
66703;BME280;60933;46.398;-63.798;2023-03-18T16:44:30;100155.91;;;8.64;58.29
66703;BME280;60933;46.398;-63.798;2023-03-18T16:47:00;100163.97;;;8.50;59.25
66703;BME280;60933;46.398;-63.798;2023-03-18T16:49:32;100161.09;;;8.27;58.90
66703;BME280;60933;46.398;-63.798;2023-03-18T16:51:59;100138.44;;;8.06;60.13
66703;BME280;60933;46.398;-63.798;2023-03-18T16:54:31;100130.72;;;8.06;61.86
66703;BME280;60933;46.398;-63.798;2023-03-18T16:57:00;100116.47;;;7.93;60.49
66703;BME280;60933;46.398;-63.798;2023-03-18T16:59:35;100083.94;;;7.92;60.66
66703;BME280;60933;46.398;-63.798;2023-03-18T17:02:02;100071.53;;;8.10;61.17
66703;BME280;60933;46.398;-63.798;2023-03-18T17:04:30;100043.75;;;8.57;60.10
66703;BME280;60933;46.398;-63.798;2023-03-18T17:06:59;100010.47;;;9.09;57.92
66703;BME280;60933;46.398;-63.798;2023-03-18T17:09:26;100041.63;;;9.01;59.21
66703;BME280;60933;46.398;-63.798;2023-03-18T17:11:56;100051.03;;;9.02;59.04
66703;BME280;60933;46.398;-63.798;2023-03-18T17:14:38;100061.16;;;9.09;58.89
66703;BME280;60933;46.398;-63.798;2023-03-18T17:17:21;100091.81;;;8.86;59.12
66703;BME280;60933;46.398;-63.798;2023-03-18T17:19:48;100088.38;;;8.54;59.96
66703;BME280;60933;46.398;-63.798;2023-03-18T17:22:27;100089.63;;;8.39;60.91
66703;BME280;60933;46.398;-63.798;2023-03-18T17:24:53;100087.56;;;8.19;60.40
66703;BME280;60933;46.398;-63.798;2023-03-18T17:27:22;100089.03;;;7.95;60.66
66703;BME280;60933;46.398;-63.798;2023-03-18T17:29:50;100095.19;;;7.88;61.34
66703;BME280;60933;46.398;-63.798;2023-03-18T17:32:17;100104.72;;;7.83;61.72
66703;BME280;60933;46.398;-63.798;2023-03-18T17:34:49;100105.75;;;7.75;61.33
66703;BME280;60933;46.398;-63.798;2023-03-18T17:37:16;100113.50;;;7.74;61.80
66703;BME280;60933;46.398;-63.798;2023-03-18T17:39:42;100118.53;;;7.79;62.08
66703;BME280;60933;46.398;-63.798;2023-03-18T17:42:29;100109.75;;;7.89;62.13
66703;BME280;60933;46.398;-63.798;2023-03-18T17:45:07;100102.66;;;7.97;61.53
66703;BME280;60933;46.398;-63.798;2023-03-18T17:47:41;100097.72;;;7.89;61.63
66703;BME280;60933;46.398;-63.798;2023-03-18T17:50:15;100080.28;;;8.02;61.84
66703;BME280;60933;46.398;-63.798;2023-03-18T17:52:48;100068.75;;;8.17;61.52
66703;BME280;60933;46.398;-63.798;2023-03-18T17:55:17;100069.00;;;8.41;61.68
66703;BME280;60933;46.398;-63.798;2023-03-18T17:57:44;100076.38;;;8.55;61.90
66703;BME280;60933;46.398;-63.798;2023-03-18T18:00:19;100081.16;;;8.69;61.28
66703;BME280;60933;46.398;-63.798;2023-03-18T18:02:53;100053.22;;;8.55;61.21
66703;BME280;60933;46.398;-63.798;2023-03-18T18:05:21;100056.81;;;8.81;60.99
66703;BME280;60933;46.398;-63.798;2023-03-18T18:07:48;100037.16;;;9.07;60.64
66703;BME280;60933;46.398;-63.798;2023-03-18T18:10:16;100036.94;;;9.43;59.41
66703;BME280;60933;46.398;-63.798;2023-03-18T18:12:45;100032.59;;;9.72;58.74
66703;BME280;60933;46.398;-63.798;2023-03-18T18:15:25;100035.66;;;9.56;58.33
66703;BME280;60933;46.398;-63.798;2023-03-18T18:17:52;100037.72;;;9.45;58.63
66703;BME280;60933;46.398;-63.798;2023-03-18T18:20:20;100029.41;;;9.37;59.10
66703;BME280;60933;46.398;-63.798;2023-03-18T18:22:50;100026.97;;;9.32;59.41
66703;BME280;60933;46.398;-63.798;2023-03-18T18:25:23;100026.47;;;9.21;59.18
66703;BME280;60933;46.398;-63.798;2023-03-18T18:27:49;100034.59;;;9.07;59.28
66703;BME280;60933;46.398;-63.798;2023-03-18T18:30:18;100033.22;;;8.96;60.64
66703;BME280;60933;46.398;-63.798;2023-03-18T18:32:47;100047.47;;;8.77;60.00
66703;BME280;60933;46.398;-63.798;2023-03-18T18:35:20;100054.81;;;8.59;60.43
66703;BME280;60933;46.398;-63.798;2023-03-18T18:37:47;100051.72;;;8.48;60.83
66703;BME280;60933;46.398;-63.798;2023-03-18T18:40:15;100046.59;;;8.45;60.72
66703;BME280;60933;46.398;-63.798;2023-03-18T18:42:42;100039.66;;;8.50;61.38
66703;BME280;60933;46.398;-63.798;2023-03-18T18:45:14;100037.38;;;8.70;61.29
66703;BME280;60933;46.398;-63.798;2023-03-18T18:47:40;100021.56;;;8.83;60.31
66703;BME280;60933;46.398;-63.798;2023-03-18T18:50:16;100025.00;;;8.82;60.26
66703;BME280;60933;46.398;-63.798;2023-03-18T18:52:43;100024.19;;;8.81;60.59
66703;BME280;60933;46.398;-63.798;2023-03-18T18:55:10;100025.19;;;8.77;60.67
66703;BME280;60933;46.398;-63.798;2023-03-18T18:57:42;100029.06;;;8.61;61.00
66703;BME280;60933;46.398;-63.798;2023-03-18T19:00:16;100021.72;;;8.47;61.68
66703;BME280;60933;46.398;-63.798;2023-03-18T19:02:43;100027.13;;;8.36;61.92
66703;BME280;60933;46.398;-63.798;2023-03-18T19:05:12;100023.22;;;8.21;62.26
66703;BME280;60933;46.398;-63.798;2023-03-18T19:07:39;100025.25;;;8.10;62.33
66703;BME280;60933;46.398;-63.798;2023-03-18T19:10:12;100010.13;;;7.97;63.10
66703;BME280;60933;46.398;-63.798;2023-03-18T19:12:39;100005.25;;;7.88;63.11
66703;BME280;60933;46.398;-63.798;2023-03-18T19:15:06;99999.47;;;7.80;63.60
66703;BME280;60933;46.398;-63.798;2023-03-18T19:17:32;100011.66;;;7.71;63.64
66703;BME280;60933;46.398;-63.798;2023-03-18T19:19:59;100017.81;;;7.64;64.57
66703;BME280;60933;46.398;-63.798;2023-03-18T19:22:25;100013.69;;;7.58;64.39
66703;BME280;60933;46.398;-63.798;2023-03-18T19:24:52;100002.75;;;7.50;64.78
66703;BME280;60933;46.398;-63.798;2023-03-18T19:34:08;100001.50;;;7.29;65.73
66703;BME280;60933;46.398;-63.798;2023-03-18T19:36:53;100005.97;;;7.22;65.83
66703;BME280;60933;46.398;-63.798;2023-03-18T19:39:20;100005.97;;;7.22;65.92
66703;BME280;60933;46.398;-63.798;2023-03-18T19:41:47;100011.06;;;7.24;66.12
66703;BME280;60933;46.398;-63.798;2023-03-18T19:44:21;100005.28;;;7.14;65.58
66703;BME280;60933;46.398;-63.798;2023-03-18T19:46:51;100007.00;;;7.13;66.10
66703;BME280;60933;46.398;-63.798;2023-03-18T19:49:22;99999.41;;;7.09;65.98
66703;BME280;60933;46.398;-63.798;2023-03-18T19:51:49;100004.66;;;7.04;65.71
66703;BME280;60933;46.398;-63.798;2023-03-18T19:54:26;100003.94;;;6.97;66.20
66703;BME280;60933;46.398;-63.798;2023-03-18T19:56:53;99999.03;;;6.87;66.60
66703;BME280;60933;46.398;-63.798;2023-03-18T19:59:22;100006.00;;;6.81;66.60
66703;BME280;60933;46.398;-63.798;2023-03-18T20:01:50;100006.09;;;6.75;67.22
66703;BME280;60933;46.398;-63.798;2023-03-18T20:04:18;100013.06;;;6.70;67.17
66703;BME280;60933;46.398;-63.798;2023-03-18T20:06:45;100016.63;;;6.63;67.26
66703;BME280;60933;46.398;-63.798;2023-03-18T20:09:15;100012.47;;;6.57;67.78
66703;BME280;60933;46.398;-63.798;2023-03-18T20:11:45;100018.53;;;6.52;67.95
66703;BME280;60933;46.398;-63.798;2023-03-18T20:14:20;100016.19;;;6.42;68.09
66703;BME280;60933;46.398;-63.798;2023-03-18T20:16:49;100016.34;;;6.33;68.00
66703;BME280;60933;46.398;-63.798;2023-03-18T20:19:15;100015.56;;;6.29;68.06
66703;BME280;60933;46.398;-63.798;2023-03-18T20:21:41;100004.56;;;6.23;68.56
66703;BME280;60933;46.398;-63.798;2023-03-18T20:24:11;99997.94;;;6.12;68.82
66703;BME280;60933;46.398;-63.798;2023-03-18T20:26:38;100000.50;;;6.11;68.82
66703;BME280;60933;46.398;-63.798;2023-03-18T20:29:16;99995.53;;;6.03;69.11
66703;BME280;60933;46.398;-63.798;2023-03-18T20:31:43;99992.25;;;5.95;69.78
66703;BME280;60933;46.398;-63.798;2023-03-18T20:34:09;99995.72;;;5.92;69.73
66703;BME280;60933;46.398;-63.798;2023-03-18T20:36:36;100002.53;;;5.92;70.10
66703;BME280;60933;46.398;-63.798;2023-03-18T20:39:02;99991.53;;;5.86;70.22
66703;BME280;60933;46.398;-63.798;2023-03-18T20:41:35;99977.25;;;5.73;70.25
66703;BME280;60933;46.398;-63.798;2023-03-18T20:44:03;99984.03;;;5.76;70.51